Time;durP1;ratioP1;P1;durP2;ratioP2;P2;SDS_P1;SDS_P2;PMS_P1;PMS_P2;Temp;Humidity;BMP_temperature;BMP_pressure;BME280_temperature;BME280_humidity;BME280_pressure;Samples;Min_cycle;Max_cycle;Signal;HPM_P1;HPM_P2
2022/01/27 00:03:48;;;;;;;;;;;;;;;21.79;24.69;96697.88;10449695;28;1839;-57
2022/01/27 00:08:57;;;;;;;;;;;;;;;21.81;24.98;96701.06;10455994;28;1914;-56
2022/01/27 00:14:01;;;;;;;;;;;;;;;21.79;24.30;96705.81;10473822;28;1937;-55
2022/01/27 00:19:01;;;;;;;;;;;;;;;21.80;25.08;96696.84;10465247;28;1861;-57
2022/01/27 00:24:01;;;;;;;;;;;;;;;21.80;24.91;96691.56;10463866;28;1925;-58
2022/01/27 00:29:02;;;;;;;;;;;;;;;21.82;24.66;96685.00;10467979;28;1976;-57
2022/01/27 00:34:04;;;;;;;;;;;;;;;21.77;24.27;96676.22;10468204;28;1858;-57
2022/01/27 00:39:04;;;;;;;;;;;;;;;21.82;25.22;96684.22;10469509;28;1827;-54
2022/01/27 00:44:05;;;;;;;;;;;;;;;21.84;25.28;96703.22;10465034;28;1975;-55
2022/01/27 00:49:05;;;;;;;;;;;;;;;21.84;25.60;96703.22;10465769;28;1906;-55
2022/01/27 00:54:12;;;;;;;;;;;;;;;21.82;25.19;96705.34;10463405;28;1946;-56
2022/01/27 00:59:30;;;;;;;;;;;;;;;21.81;25.60;96695.78;10465572;28;2066;-57
2022/01/27 01:04:35;;;;;;;;;;;;;;;21.84;25.73;96690.03;10470856;28;1874;-57
2022/01/27 01:15:04;;;;;;;;;;;;;;;21.84;25.76;96684.75;10466793;28;1923;-57
2022/01/27 01:20:34;;;;;;;;;;;;;;;21.82;24.98;96674.44;10464900;28;1944;-56
2022/01/27 01:30:50;;;;;;;;;;;;;;;21.85;25.69;96670.47;10461293;28;1890;-55
2022/01/27 01:36:01;;;;;;;;;;;;;;;21.90;25.48;96675.78;10468507;28;1881;-52
2022/01/27 01:41:01;;;;;;;;;;;;;;;21.87;25.50;96684.22;10466159;28;1845;-54
2022/01/27 01:46:02;;;;;;;;;;;;;;;21.85;25.58;96697.69;10463371;28;2005;-57
2022/01/27 01:51:02;;;;;;;;;;;;;;;21.83;24.94;96685.78;10459935;28;1760;-56
2022/01/27 01:56:04;;;;;;;;;;;;;;;21.88;25.44;96685.81;10464078;28;2035;-56
2022/01/27 02:01:04;;;;;;;;;;;;;;;21.85;25.48;96675.75;10457906;28;1946;-55
2022/01/27 02:06:06;;;;;;;;;;;;;;;21.87;25.38;96676.31;10464676;28;1910;-56
2022/01/27 02:21:45;;;;;;;;;;;;;;;21.85;25.25;96678.41;10458826;28;2088;-58
2022/01/27 02:26:48;;;;;;;;;;;;;;;21.83;25.17;96660.19;10464358;28;1984;-56
2022/01/27 02:31:51;;;;;;;;;;;;;;;21.80;24.87;96654.63;10464911;28;1914;-57
2022/01/27 02:36:51;;;;;;;;;;;;;;;21.79;24.92;96650.38;10460442;28;1851;-56
2022/01/27 02:41:55;;;;;;;;;;;;;;;21.80;25.13;96649.34;10464135;28;1909;-56
2022/01/27 02:46:55;;;;;;;;;;;;;;;21.80;25.39;96650.09;10459919;28;1922;-56
2022/01/27 02:51:55;;;;;;;;;;;;;;;21.83;25.31;96647.00;10434736;28;1999;-57
2022/01/27 02:56:56;;;;;;;;;;;;;;;21.80;24.94;96649.34;10457702;28;1851;-56
2022/01/27 03:01:56;;;;;;;;;;;;;;;21.81;25.17;96645.63;10456845;28;1830;-56
2022/01/27 03:06:57;;;;;;;;;;;;;;;21.79;25.30;96631.91;10456262;28;2008;-55
2022/01/27 03:11:58;;;;;;;;;;;;;;;21.79;24.58;96631.91;10462547;28;1882;-55
2022/01/27 03:16:59;;;;;;;;;;;;;;;21.79;24.75;96624.78;10460272;28;1841;-55
2022/01/27 03:22:02;;;;;;;;;;;;;;;21.81;25.26;96616.59;10463187;28;2191;-56
2022/01/27 03:27:05;;;;;;;;;;;;;;;21.77;24.98;96610.25;10455736;28;1992;-56
2022/01/27 03:32:06;;;;;;;;;;;;;;;21.77;24.81;96607.63;10458094;28;1892;-58
2022/01/27 03:37:06;;;;;;;;;;;;;;;21.77;24.89;96613.69;10455613;28;1963;-56
2022/01/27 03:42:07;;;;;;;;;;;;;;;21.78;25.22;96606.59;10460318;28;1850;-56
2022/01/27 03:47:07;;;;;;;;;;;;;;;21.74;24.13;96598.38;10456360;28;1914;-55
2022/01/27 03:52:08;;;;;;;;;;;;;;;21.75;25.00;96610.53;10454091;28;1854;-52
2022/01/27 03:57:08;;;;;;;;;;;;;;;21.76;24.56;96632.44;10454739;28;1787;-55
2022/01/27 04:02:09;;;;;;;;;;;;;;;21.71;23.94;96633.22;10460535;28;1891;-54
2022/01/27 04:07:09;;;;;;;;;;;;;;;21.76;24.42;96627.94;10457083;28;1962;-55
2022/01/27 04:12:09;;;;;;;;;;;;;;;21.74;24.78;96611.56;10462000;28;1894;-58
2022/01/27 04:17:10;;;;;;;;;;;;;;;21.71;24.62;96598.09;10453602;28;2051;-54
2022/01/27 04:22:10;;;;;;;;;;;;;;;21.71;24.81;96588.34;10453407;28;1838;-56
2022/01/27 04:27:17;;;;;;;;;;;;;;;21.73;24.72;96593.34;10456807;28;1977;-55
2022/01/27 04:32:23;;;;;;;;;;;;;;;21.68;23.92;96588.06;10454077;28;1827;-53
2022/01/27 04:37:25;;;;;;;;;;;;;;;21.72;24.69;96589.16;10452460;28;2078;-57
2022/01/27 04:42:43;;;;;;;;;;;;;;;21.69;24.32;96571.19;10455991;28;1772;-55
2022/01/27 04:47:48;;;;;;;;;;;;;;;21.68;24.08;96567.75;10455785;28;1902;-58
2022/01/27 04:52:52;;;;;;;;;;;;;;;21.70;23.98;96564.88;10452317;28;1983;-57
2022/01/27 04:58:05;;;;;;;;;;;;;;;21.69;24.73;96558.00;10457086;28;1876;-56
2022/01/27 05:03:15;;;;;;;;;;;;;;;21.70;24.54;96559.59;10455941;28;1815;-57
2022/01/27 05:08:18;;;;;;;;;;;;;;;21.66;24.26;96558.50;10458666;28;1979;-56
2022/01/27 05:13:20;;;;;;;;;;;;;;;21.66;23.97;96556.66;10459883;28;1885;-55
2022/01/27 05:18:21;;;;;;;;;;;;;;;21.65;24.13;96552.44;10458194;28;1822;-57
2022/01/27 05:23:21;;;;;;;;;;;;;;;21.62;24.26;96536.34;10463541;28;1850;-55
2022/01/27 05:28:22;;;;;;;;;;;;;;;21.64;23.71;96532.38;10462197;28;1975;-56
2022/01/27 05:33:22;;;;;;;;;;;;;;;21.65;23.68;96541.09;10459099;28;1872;-57
2022/01/27 05:38:23;;;;;;;;;;;;;;;21.67;24.56;96537.16;10454054;28;1877;-57
2022/01/27 05:43:23;;;;;;;;;;;;;;;21.71;23.86;96529.50;10460093;28;1951;-52
2022/01/27 05:48:24;;;;;;;;;;;;;;;21.68;24.43;96532.66;10461056;28;1910;-53
2022/01/27 05:53:24;;;;;;;;;;;;;;;21.65;24.05;96533.19;10458473;28;1917;-56
2022/01/27 05:58:25;;;;;;;;;;;;;;;21.68;24.38;96524.72;10460665;28;1873;-57
2022/01/27 06:03:25;;;;;;;;;;;;;;;21.68;24.04;96530.00;10452988;28;1905;-57
2022/01/27 06:08:28;;;;;;;;;;;;;;;21.65;23.51;96520.00;10455486;28;1974;-54
2022/01/27 06:13:29;;;;;;;;;;;;;;;21.65;23.72;96530.53;10460829;28;2071;-56
2022/01/27 06:18:29;;;;;;;;;;;;;;;21.61;23.46;96508.38;10454422;28;1776;-57
2022/01/27 06:23:29;;;;;;;;;;;;;;;21.61;23.46;96503.91;10466578;28;1871;-56
2022/01/27 06:28:30;;;;;;;;;;;;;;;21.62;23.85;96513.38;10457801;28;1910;-57
2022/01/27 06:33:30;;;;;;;;;;;;;;;21.63;23.50;96516.81;10463996;28;1838;-55
2022/01/27 06:38:31;;;;;;;;;;;;;;;21.67;24.25;96515.25;10458424;28;2042;-56
2022/01/27 06:43:31;;;;;;;;;;;;;;;21.63;23.64;96514.19;10461150;28;2046;-58
2022/01/27 06:48:32;;;;;;;;;;;;;;;21.66;23.65;96521.56;10460810;28;2034;-55
2022/01/27 06:53:32;;;;;;;;;;;;;;;21.63;23.93;96514.19;10457406;28;1831;-54
2022/01/27 06:58:34;;;;;;;;;;;;;;;21.68;24.21;96520.25;10444248;28;1843;-52
2022/01/27 07:03:35;;;;;;;;;;;;;;;21.69;24.45;96507.84;10454192;28;1902;-53
2022/01/27 07:08:35;;;;;;;;;;;;;;;21.64;23.50;96502.56;10449861;28;1918;-56
2022/01/27 07:13:40;;;;;;;;;;;;;;;21.65;24.45;96498.88;10456945;28;1978;-56
2022/01/27 07:18:40;;;;;;;;;;;;;;;21.62;23.93;96499.41;10453691;28;1892;-56
2022/01/27 07:23:41;;;;;;;;;;;;;;;21.74;24.44;96502.59;10459369;28;1851;-55
2022/01/27 07:28:41;;;;;;;;;;;;;;;21.88;24.52;96508.97;10453057;28;1992;-57
2022/01/27 07:33:42;;;;;;;;;;;;;;;21.90;24.64;96504.22;10455519;28;1831;-56
2022/01/27 07:38:43;;;;;;;;;;;;;;;21.89;24.45;96499.97;10452201;28;1863;-58
2022/01/27 07:43:44;;;;;;;;;;;;;;;21.93;24.64;96497.63;10442901;28;1815;-57
2022/01/27 07:48:44;;;;;;;;;;;;;;;21.94;24.44;96497.34;10454238;28;1981;-56
2022/01/27 07:53:44;;;;;;;;;;;;;;;21.99;24.72;96502.63;10451048;28;1974;-57
2022/01/27 07:58:45;;;;;;;;;;;;;;;22.00;24.90;96496.28;10452186;28;1903;-58
2022/01/27 08:03:45;;;;;;;;;;;;;;;22.04;24.89;96496.56;10453593;28;1835;-59
2022/01/27 08:08:46;;;;;;;;;;;;;;;22.06;24.72;96495.25;10447953;28;2000;-56
2022/01/27 08:13:46;;;;;;;;;;;;;;;22.11;24.87;96497.88;10449949;28;1838;-58
2022/01/27 08:18:47;;;;;;;;;;;;;;;22.14;24.83;96493.91;10446275;28;1872;-56
2022/01/27 08:23:47;;;;;;;;;;;;;;;22.15;25.03;96477.81;10447313;28;2018;-57
2022/01/27 08:28:58;;;;;;;;;;;;;;;22.18;24.82;96487.03;10456166;28;2062;-58
2022/01/27 08:34:03;;;;;;;;;;;;;;;22.17;24.92;96475.69;10472588;28;1874;-59
2022/01/27 08:39:03;;;;;;;;;;;;;;;22.18;25.44;96482.56;10468010;28;1784;-55
2022/01/27 08:44:04;;;;;;;;;;;;;;;22.22;25.52;96488.88;10476465;28;1922;-56
2022/01/27 08:49:05;;;;;;;;;;;;;;;22.21;25.42;96492.59;10470741;28;2270;-59
2022/01/27 08:54:06;;;;;;;;;;;;;;;22.24;25.13;96486.75;10470524;28;1873;-56
2022/01/27 08:59:06;;;;;;;;;;;;;;;22.25;25.30;96488.38;10453698;28;1889;-57
2022/01/27 09:04:07;;;;;;;;;;;;;;;22.28;25.19;96474.59;10458342;28;1830;-55
2022/01/27 09:09:07;;;;;;;;;;;;;;;22.27;25.06;96469.59;10452083;28;2101;-57
2022/01/27 09:14:08;;;;;;;;;;;;;;;22.29;25.46;96473.56;10463742;28;1799;-64
2022/01/27 09:19:08;;;;;;;;;;;;;;;22.30;25.54;96469.84;10467812;28;1845;-57
2022/01/27 09:24:14;;;;;;;;;;;;;;;22.34;25.32;96459.56;10463738;28;1896;-57
2022/01/27 09:29:16;;;;;;;;;;;;;;;22.34;25.46;96460.34;10467018;28;1955;-60
2022/01/27 09:34:16;;;;;;;;;;;;;;;22.31;25.69;96460.88;10461574;28;1838;-55
2022/01/27 09:39:17;;;;;;;;;;;;;;;22.31;25.78;96452.97;10456363;28;1827;-56
2022/01/27 09:44:19;;;;;;;;;;;;;;;22.32;26.17;96451.09;10470697;28;1783;-57
2022/01/27 09:49:30;;;;;;;;;;;;;;;22.32;26.14;96449.25;10464674;28;1951;-56
2022/01/27 09:54:30;;;;;;;;;;;;;;;22.36;26.22;96447.66;10466084;28;1841;-58
2022/01/27 09:59:31;;;;;;;;;;;;;;;22.38;26.22;96456.09;10462378;28;1842;-57
2022/01/27 10:04:44;;;;;;;;;;;;;;;22.40;26.14;96440.78;10462742;28;1831;-56
2022/01/27 10:09:57;;;;;;;;;;;;;;;22.38;26.47;96428.91;10459751;28;1906;-60
2022/01/27 10:14:58;;;;;;;;;;;;;;;22.38;26.58;96434.19;10462236;28;1934;-56
2022/01/27 10:19:59;;;;;;;;;;;;;;;22.42;26.45;96433.38;10463564;28;1706;-57
2022/01/27 10:25:10;;;;;;;;;;;;;;;22.41;26.66;96428.38;10457318;28;1770;-56
2022/01/27 10:35:24;;;;;;;;;;;;;;;22.46;26.61;96421.19;10455429;28;2018;-59
2022/01/27 10:40:29;;;;;;;;;;;;;;;22.48;26.63;96408.50;10464163;28;2046;-58
2022/01/27 10:45:29;;;;;;;;;;;;;;;22.50;26.66;96405.63;10452614;28;1890;-55
2022/01/27 10:50:31;;;;;;;;;;;;;;;22.48;26.58;96405.09;10451916;28;1954;-57
2022/01/27 10:55:31;;;;;;;;;;;;;;;22.44;26.65;96407.47;10454834;28;1751;-56
2022/01/27 11:00:35;;;;;;;;;;;;;;;22.38;26.67;96407.78;10448760;28;1858;-55
2022/01/27 11:05:40;;;;;;;;;;;;;;;22.41;26.40;96402.75;10462858;28;1846;-54
2022/01/27 11:10:41;;;;;;;;;;;;;;;22.37;26.41;96399.06;10459863;28;1969;-56
2022/01/27 11:15:42;;;;;;;;;;;;;;;22.33;26.59;96390.09;10450515;28;1850;-56
2022/01/27 11:25:53;;;;;;;;;;;;;;;22.34;26.62;96375.03;10473840;28;1800;-55
2022/01/27 11:30:58;;;;;;;;;;;;;;;22.39;26.89;96372.38;10453094;28;1906;-55
2022/01/27 11:36:04;;;;;;;;;;;;;;;22.37;27.67;96366.56;10455791;28;1811;-56
2022/01/27 11:41:05;;;;;;;;;;;;;;;22.35;27.99;96361.56;10453270;28;1931;-54
2022/01/27 11:46:15;;;;;;;;;;;;;;;22.33;27.47;96361.03;10453919;28;1767;-51
2022/01/27 11:51:16;;;;;;;;;;;;;;;22.30;27.45;96353.63;10456735;28;1807;-54
2022/01/27 11:56:23;;;;;;;;;;;;;;;22.29;27.29;96340.72;10457238;28;1862;-54
2022/01/27 12:01:23;;;;;;;;;;;;;;;22.28;27.38;96339.91;10456955;28;1816;-56
2022/01/27 12:06:24;;;;;;;;;;;;;;;22.29;27.21;96336.22;10460416;28;1971;-56
2022/01/27 12:11:40;;;;;;;;;;;;;;;22.24;27.18;96333.59;10465129;28;1890;-55
2022/01/27 12:16:53;;;;;;;;;;;;;;;22.23;27.04;96329.38;10458720;28;1870;-54
2022/01/27 12:21:56;;;;;;;;;;;;;;;22.21;27.01;96331.50;10456347;28;1813;-55
2022/01/27 12:26:58;;;;;;;;;;;;;;;22.15;27.05;96334.44;10458160;28;1910;-57
2022/01/27 12:31:59;;;;;;;;;;;;;;;22.18;26.89;96333.88;10462289;28;1963;-54
2022/01/27 12:37:03;;;;;;;;;;;;;;;22.13;27.12;96337.34;10461496;28;1843;-55
2022/01/27 12:42:04;;;;;;;;;;;;;;;22.10;27.22;96327.31;10466612;28;1804;-59
2022/01/27 12:47:06;;;;;;;;;;;;;;;22.10;27.00;96332.59;10459555;28;1921;-58
2022/01/27 12:52:08;;;;;;;;;;;;;;;22.10;27.00;96337.88;10464636;28;1936;-57
2022/01/27 12:57:09;;;;;;;;;;;;;;;22.11;26.94;96334.19;10461944;28;2054;-59
2022/01/27 13:02:10;;;;;;;;;;;;;;;22.04;26.72;96327.59;10460340;28;1835;-58
2022/01/27 13:07:11;;;;;;;;;;;;;;;22.05;27.21;96329.94;10462190;28;1946;-57
2022/01/27 13:12:17;;;;;;;;;;;;;;;22.10;27.05;96335.22;10471008;28;1842;-59
2022/01/27 13:17:19;;;;;;;;;;;;;;;22.09;27.28;96331.00;10457549;28;1963;-57
2022/01/27 13:22:27;;;;;;;;;;;;;;;22.16;27.04;96325.44;10463648;28;1789;-61
2022/01/27 13:27:28;;;;;;;;;;;;;;;22.45;26.93;96329.81;10449967;28;1922;-57
2022/01/27 13:32:28;;;;;;;;;;;;;;;22.76;26.58;96329.69;10455940;28;1827;-55
2022/01/27 13:37:30;;;;;;;;;;;;;;;22.70;26.92;96333.41;10436727;28;1807;-58
2022/01/27 13:42:31;;;;;;;;;;;;;;;22.56;27.45;96336.66;10457734;28;1823;-58
2022/01/27 13:47:35;;;;;;;;;;;;;;;22.47;27.90;96326.91;10464732;28;1985;-58
2022/01/27 13:52:39;;;;;;;;;;;;;;;22.48;27.66;96331.91;10470811;28;2022;-55
2022/01/27 13:57:48;;;;;;;;;;;;;;;22.47;27.40;96322.41;10469765;28;1791;-58
2022/01/27 14:02:53;;;;;;;;;;;;;;;22.51;27.47;96333.22;10466863;28;1819;-57
2022/01/27 14:07:55;;;;;;;;;;;;;;;22.52;27.41;96327.66;10464309;28;1934;-59
2022/01/27 14:18:17;;;;;;;;;;;;;;;22.39;27.66;96322.97;10453220;28;1858;-60
2022/01/27 14:23:20;;;;;;;;;;;;;;;22.54;27.24;96328.19;10461494;28;1895;-55
2022/01/27 14:28:21;;;;;;;;;;;;;;;22.42;27.93;96340.16;10461716;28;1906;-61
2022/01/27 14:33:21;;;;;;;;;;;;;;;22.27;27.69;96348.91;10465934;28;1887;-54
2022/01/27 14:38:21;;;;;;;;;;;;;;;22.22;27.51;96351.56;10450472;28;1852;-57
2022/01/27 14:43:24;;;;;;;;;;;;;;;22.14;27.74;96349.47;10443724;28;1837;-54
2022/01/27 14:48:26;;;;;;;;;;;;;;;22.12;27.92;96356.06;10438991;28;2028;-59
2022/01/27 14:53:27;;;;;;;;;;;;;;;22.09;27.47;96352.13;10453266;28;1846;-59
2022/01/27 14:58:27;;;;;;;;;;;;;;;22.08;27.68;96345.28;10453469;28;2154;-62
2022/01/27 15:03:28;;;;;;;;;;;;;;;22.01;27.66;96357.94;10453148;28;1835;-61
2022/01/27 15:08:28;;;;;;;;;;;;;;;21.98;27.57;96363.78;10454622;28;2030;-58
2022/01/27 15:13:29;;;;;;;;;;;;;;;21.99;27.59;96367.97;10459078;28;1808;-60
2022/01/27 15:23:49;;;;;;;;;;;;;;;21.92;27.61;96364.84;10449678;28;1919;-59
2022/01/27 15:28:49;;;;;;;;;;;;;;;21.94;27.29;96359.28;10451826;28;1963;-57
2022/01/27 15:33:50;;;;;;;;;;;;;;;21.92;27.25;96343.72;10454175;28;1780;-57
2022/01/27 15:38:50;;;;;;;;;;;;;;;21.91;27.32;96339.50;10444511;28;1787;-59
2022/01/27 15:43:51;;;;;;;;;;;;;;;21.98;27.29;96340.03;10458838;28;2039;-60
2022/01/27 15:48:52;;;;;;;;;;;;;;;21.97;27.47;96354.25;10455692;28;1906;-58
2022/01/27 15:53:52;;;;;;;;;;;;;;;21.98;27.36;96366.41;10454948;28;1966;-59
2022/01/27 15:58:53;;;;;;;;;;;;;;;22.02;27.24;96362.19;10460364;28;1878;-60
2022/01/27 16:03:53;;;;;;;;;;;;;;;21.98;27.37;96371.69;10455913;28;1780;-59
2022/01/27 16:08:53;;;;;;;;;;;;;;;22.00;27.10;96369.59;10450563;28;1914;-60
2022/01/27 16:13:54;;;;;;;;;;;;;;;22.02;26.93;96351.63;10455968;28;1882;-59
2022/01/27 16:18:55;;;;;;;;;;;;;;;22.04;27.20;96352.16;10453381;28;1935;-58
2022/01/27 16:23:57;;;;;;;;;;;;;;;22.06;26.92;96362.44;10454254;28;2073;-60
2022/01/27 16:28:58;;;;;;;;;;;;;;;22.11;26.77;96344.75;10450342;28;1971;-59
2022/01/27 16:33:59;;;;;;;;;;;;;;;22.11;26.91;96355.31;10453545;28;1950;-60
2022/01/27 16:38:59;;;;;;;;;;;;;;;22.16;26.57;96328.88;10451000;28;1823;-54
2022/01/27 16:44:00;;;;;;;;;;;;;;;22.13;26.86;96337.34;10456598;28;1831;-59
2022/01/27 16:49:00;;;;;;;;;;;;;;;22.19;26.63;96324.91;10453658;28;1922;-59
2022/01/27 16:54:00;;;;;;;;;;;;;;;22.13;26.77;96329.44;10448601;28;1806;-60
2022/01/27 16:59:01;;;;;;;;;;;;;;;22.13;26.45;96347.13;10455430;28;1845;-57
2022/01/27 17:04:02;;;;;;;;;;;;;;;22.13;26.50;96373.50;10464481;28;1803;-57
2022/01/27 17:09:02;;;;;;;;;;;;;;;22.15;26.63;96355.56;10457077;28;1977;-62
2022/01/27 17:14:03;;;;;;;;;;;;;;;22.18;26.27;96353.16;10462814;28;1834;-58
2022/01/27 17:19:03;;;;;;;;;;;;;;;22.18;26.26;96349.72;10461228;28;1894;-58
2022/01/27 17:24:04;;;;;;;;;;;;;;;22.18;26.31;96362.91;10462006;28;1982;-56
2022/01/27 17:29:05;;;;;;;;;;;;;;;22.15;26.15;96348.44;10459079;28;1906;-56
2022/01/27 17:34:05;;;;;;;;;;;;;;;22.13;25.69;96336.56;10461970;28;1847;-53
2022/01/27 17:39:05;;;;;;;;;;;;;;;22.16;26.06;96320.94;10456942;28;2003;-57
2022/01/27 17:44:14;;;;;;;;;;;;;;;22.16;26.42;96320.16;10462920;28;2174;-57
2022/01/27 17:49:15;;;;;;;;;;;;;;;22.23;26.29;96310.91;10465979;28;1914;-59
2022/01/27 17:54:15;;;;;;;;;;;;;;;22.23;26.32;96321.47;10451572;28;1873;-57
2022/01/27 17:59:16;;;;;;;;;;;;;;;22.17;26.07;96330.47;10460807;28;1819;-53
2022/01/27 18:04:16;;;;;;;;;;;;;;;22.11;25.43;96330.75;10458412;28;1806;-55
2022/01/27 18:09:17;;;;;;;;;;;;;;;22.12;25.80;96343.69;10455499;28;1910;-55
2022/01/27 18:14:17;;;;;;;;;;;;;;;22.24;26.38;96349.44;10450692;28;1815;-59
2022/01/27 18:19:18;;;;;;;;;;;;;;;22.20;26.30;96329.91;10459634;28;2041;-57
2022/01/27 18:24:18;;;;;;;;;;;;;;;22.19;25.66;96315.16;10457825;28;1945;-57
2022/01/27 18:29:19;;;;;;;;;;;;;;;22.16;25.51;96305.09;10451230;28;1917;-57
2022/01/27 18:34:19;;;;;;;;;;;;;;;22.17;26.14;96304.06;10457467;28;1696;-56
2022/01/27 18:39:20;;;;;;;;;;;;;;;22.25;27.33;96316.69;10451072;28;2640;-58
2022/01/27 18:44:20;;;;;;;;;;;;;;;22.33;27.82;96315.34;10454715;28;1850;-58
2022/01/27 18:49:21;;;;;;;;;;;;;;;22.35;27.99;96307.94;10461767;28;1981;-57
2022/01/27 18:54:21;;;;;;;;;;;;;;;22.35;27.55;96311.38;10452758;28;2087;-57
2022/01/27 18:59:22;;;;;;;;;;;;;;;22.28;26.88;96291.59;10459564;28;1917;-57
2022/01/27 19:04:22;;;;;;;;;;;;;;;22.16;25.46;96281.34;10457320;28;2054;-56
2022/01/27 19:09:23;;;;;;;;;;;;;;;22.17;26.54;96290.84;10457409;28;1982;-57
2022/01/27 19:14:23;;;;;;;;;;;;;;;22.16;26.71;96309.59;10441892;28;1996;-57
2022/01/27 19:19:23;;;;;;;;;;;;;;;22.17;27.83;96311.19;10453878;28;1910;-57
2022/01/27 19:24:24;;;;;;;;;;;;;;;22.20;28.25;96300.88;10458904;28;1827;-57
2022/01/27 19:29:29;;;;;;;;;;;;;;;22.28;29.17;96312.72;10458813;28;2120;-59
2022/01/27 19:34:30;;;;;;;;;;;;;;;22.14;26.51;96298.50;10461947;28;1862;-58
2022/01/27 19:39:33;;;;;;;;;;;;;;;22.02;26.42;96304.09;10459241;28;1791;-58
2022/01/27 19:44:33;;;;;;;;;;;;;;;21.99;26.44;96304.63;10460776;28;1837;-59
2022/01/27 19:49:34;;;;;;;;;;;;;;;21.98;26.03;96307.53;10462086;28;1909;-58
2022/01/27 19:54:39;;;;;;;;;;;;;;;22.07;27.15;96309.34;10432713;28;1874;-56
2022/01/27 19:59:39;;;;;;;;;;;;;;;22.13;28.43;96331.28;10458361;28;1875;-58
2022/01/27 20:04:40;;;;;;;;;;;;;;;22.16;29.45;96312.22;10456296;28;1865;-58
2022/01/27 20:09:41;;;;;;;;;;;;;;;22.17;30.03;96314.63;10456955;28;1906;-59
2022/01/27 20:14:41;;;;;;;;;;;;;;;22.16;29.32;96318.31;10446648;28;1838;-59
2022/01/27 20:19:49;;;;;;;;;;;;;;;22.15;30.05;96324.66;10454613;28;1833;-58
2022/01/27 20:24:51;;;;;;;;;;;;;;;22.10;29.55;96322.03;10477172;28;2116;-58
2022/01/27 20:29:52;;;;;;;;;;;;;;;22.08;29.17;96316.22;10448131;28;1942;-59
2022/01/27 20:34:53;;;;;;;;;;;;;;;22.06;29.35;96313.06;10470996;28;1794;-58
2022/01/27 20:39:53;;;;;;;;;;;;;;;22.02;29.74;96316.50;10458668;28;1944;-59
2022/01/27 20:44:53;;;;;;;;;;;;;;;22.00;29.69;96316.78;10464617;28;1904;-57
2022/01/27 20:49:54;;;;;;;;;;;;;;;22.00;29.40;96322.06;10463605;28;1909;-58
2022/01/27 20:54:55;;;;;;;;;;;;;;;21.98;29.56;96320.75;10467736;28;1804;-59
2022/01/27 20:59:56;;;;;;;;;;;;;;;21.94;29.28;96328.41;10462715;28;1749;-58
2022/01/27 21:04:56;;;;;;;;;;;;;;;21.95;29.35;96324.72;10467834;28;1780;-59
2022/01/27 21:09:57;;;;;;;;;;;;;;;21.93;29.64;96326.81;10462206;28;1973;-59
2022/01/27 21:14:57;;;;;;;;;;;;;;;21.91;29.48;96320.25;10464721;28;1896;-56
2022/01/27 21:19:57;;;;;;;;;;;;;;;21.91;29.23;96328.16;10462119;28;1848;-58
2022/01/27 21:24:58;;;;;;;;;;;;;;;21.88;29.23;96340.06;10451738;28;1864;-58
2022/01/27 21:29:58;;;;;;;;;;;;;;;21.87;29.33;96343.72;10466195;28;1906;-56
2022/01/27 21:35:00;;;;;;;;;;;;;;;21.83;29.30;96343.47;10459995;28;1940;-58
2022/01/27 21:40:04;;;;;;;;;;;;;;;21.84;29.25;96341.66;10463857;28;1832;-57
2022/01/27 21:45:05;;;;;;;;;;;;;;;21.82;29.21;96347.16;10459606;28;1770;-56
2022/01/27 21:50:06;;;;;;;;;;;;;;;21.80;29.21;96366.94;10458962;28;1964;-58
2022/01/27 21:55:07;;;;;;;;;;;;;;;21.80;29.08;96365.09;10464110;28;1914;-56
2022/01/27 22:00:08;;;;;;;;;;;;;;;21.80;29.07;96362.44;10462019;28;1790;-59
2022/01/27 22:05:09;;;;;;;;;;;;;;;21.80;29.40;96374.88;10449359;28;1807;-59
2022/01/27 22:10:09;;;;;;;;;;;;;;;21.78;28.84;96371.72;10456118;28;1963;-58
2022/01/27 22:15:10;;;;;;;;;;;;;;;21.76;29.05;96376.47;10457398;28;1867;-60
2022/01/27 22:20:10;;;;;;;;;;;;;;;21.82;29.13;96378.84;10463664;28;1879;-57
2022/01/27 22:25:12;;;;;;;;;;;;;;;21.78;28.80;96379.63;10462968;28;1807;-54
2022/01/27 22:30:13;;;;;;;;;;;;;;;21.76;28.87;96369.31;10462000;28;1906;-59
2022/01/27 22:35:13;;;;;;;;;;;;;;;21.77;28.80;96375.38;10458142;28;1774;-58
2022/01/27 22:40:14;;;;;;;;;;;;;;;21.76;28.46;96379.88;10460907;28;1789;-58
2022/01/27 22:45:15;;;;;;;;;;;;;;;21.74;28.70;96376.72;10454502;28;1869;-58
2022/01/27 22:50:19;;;;;;;;;;;;;;;21.75;28.28;96380.94;10458941;28;1894;-58
2022/01/27 22:55:19;;;;;;;;;;;;;;;21.76;28.38;96384.38;10459320;28;1909;-58
2022/01/27 23:00:33;;;;;;;;;;;;;;;21.76;28.41;96369.31;10461374;28;1913;-58
2022/01/27 23:05:33;;;;;;;;;;;;;;;21.77;28.24;96391.22;10456058;28;1771;-57
2022/01/27 23:10:33;;;;;;;;;;;;;;;21.74;28.13;96407.59;10458263;28;1981;-59
2022/01/27 23:20:39;;;;;;;;;;;;;;;21.73;28.25;96412.06;10458640;28;1807;-58
2022/01/27 23:25:47;;;;;;;;;;;;;;;21.74;28.15;96411.00;10461108;28;1803;-56
2022/01/27 23:30:49;;;;;;;;;;;;;;;21.73;28.12;96420.00;10454650;28;1910;-56
2022/01/27 23:35:54;;;;;;;;;;;;;;;21.74;28.15;96426.84;10455783;28;1786;-55
2022/01/27 23:41:07;;;;;;;;;;;;;;;21.74;28.04;96423.44;10454019;28;1730;-57
2022/01/27 23:46:39;;;;;;;;;;;;;;;21.73;28.05;96446.38;10457738;28;1824;-54
2022/01/27 23:51:58;;;;;;;;;;;;;;;21.73;28.23;96443.75;10449410;28;1898;-57
2022/01/27 23:57:29;;;;;;;;;;;;;;;21.72;28.41;96449.28;10454536;28;1881;-56
